Hauptseite
METAR-TAF:

METAR-TAF

Flughäfen :

Flughafen Kadala

Tschita, Russland

Breite: 52-05N, Länge: 113-29E, Höhe: 685 m

Beobachtung

Neuester Wetterbericht von vor 39 Minuten, um 17:30 UTC
Wind 2 kt aus unterschiedlichen Richtungen
Temperatur -11°C
Luftfeuchtigkeit 66%
Luftdruck 1021 hPa
Sichtweite 10 km oder mehr

METAR: UIAA 201730Z AUTO VRB01MPS 9999 NCD M11/M16 Q1021 RMK QFE707/0942

Zeit: 03:09 (18:09 UTC)

Prognose

Neuester Wetterbericht von vor 1 Stunde und 9 Minuten, um 17:00 UTC
Gültige Prognose vom 20 um 18 UTC bis 21 um 18 UTC
Wind 6 kt aus West, Böen bis zu 16 kt
Sichtweite 10 km oder mehr

TAF: UIAA 201700Z 2018/2118 26003G08MPS 9999 NSC

Wetterbeobachtungen und Prognosen von mehr als 4000 Flughäfen (METAR und TAF Bericht).

Die verfügbaren Stationen werden durch gelbe und rote Markierungen auf der Karte dargestellt.

Führen Sie die Maus auf sie, um den Namen der Station zu sehen.

Darauf klicken, um die Beobachtung von Wetterbeobachtungen und Prognosen zu sehen.

Um die Karte zu ändern : klicken Sie auf den grünen Tasten mit einem schwarzen Kreuz Zum Vergrößern, auf den grünen Button mit einem Gedankenstrich zu verkleinern, oder auf die grünen Pfeile für benachbarte Karten.


METAR-TAF: